الصفحة الرئيسية
METAR-TAF:

METAR-TAF

مطار :

مطار ويلينغتون الدولي

ويلينغتون, نيوزيلندا

دائرة عرض: 41-20S, خط طول: 174-48E, ارتفاع: 12 متر

مراقبة الطقس الحالي

تاريخ ووقت الإصدار 35 دقيقة قبل الساعة 18:00UTC
ريح 12 عقدة من الشمال/الشمال الشرقي
درجة الحرارة 12°درجة مئوية
الرطوبة 76%
ضغط 1018 hPa
الرؤية 10 كم أو أكثر

METAR: NZWN 161800Z AUTO 03012KT 9999 NCD 12/08 Q1018 NOSIG

زمن: 07:35 (18:35 UTC)

توقعات

تاريخ ووقت الإصدار 1ساعة و 28 دقيقة قبل الساعة 17:07UTC
التوقعات صالحة من16 الساعة 18 UTC إلى 17 الساعة 18 UTC
ريح 15 عقدة من الشمال
الرؤية 10 كم أو أكثر
غيوم قليلة على ارتفاع 6000 قدم
أصبح
من 16 الساعة 18 UTC إلى 16 الساعة 20 UTC
ريح 5 عقدة من الشمال
نظرية الاحتمالات 40%
من 16 الساعة 20 UTC إلى 17 الساعة 00 UTC
ريح 5 عقدة من الجنوب
أصبح
من 17 الساعة 00 UTC إلى 17 الساعة 02 UTC
ريح 15 عقدة من الشمال

TAF: NZWN 161707Z 1618/1718 36015KT 9999 FEW060 BECMG 1618/1620 36005KT PROB40 1620/1700 18005KT BECMG 1700/1702 36015KT

أرصاد الطقس والتوقعات من أكثر من 4000 مطار (تقارير الطقس للمطار METAR والتنبؤ بالطقس بالمطارTAF).

المحطات المتاحة هي النقط الصفراء والحمراء على الخريطة.

حرك المؤشر فوق النقطة لمعرفة اسم المحطة.

ثم انقر لمعرفة أرصاد وتوقعات الطقس.

لتغيير الخارطة: اضغط على الأزرار الخضراء مع رمز الصليب الأسود للتكبير. على الزر الأخضر مع شرطة للتصغير، أو على الأسهم الخضراء للخرائط المجاورة.


METAR-TAF: